createdAt,value
2022-11-17T00:03:31.053Z,95273.72
2022-11-17T00:08:34.179Z,95250.09
2022-11-17T00:13:54.112Z,95231.84
2022-11-17T00:19:15.817Z,95220.72
2022-11-17T00:24:18.453Z,95210.28
2022-11-17T00:29:21.034Z,95190.44
2022-11-17T00:34:24.992Z,95178.25
2022-11-17T00:39:27.565Z,95165.28
2022-11-17T00:44:30.261Z,95150.53
2022-11-17T00:49:34.453Z,95130.47
2022-11-17T00:54:37.047Z,95098.91
2022-11-17T00:59:39.588Z,95078.81
2022-11-17T01:04:43.498Z,95055.94
2022-11-17T01:09:46.036Z,95033.19
2022-11-17T01:14:48.600Z,95012.06
2022-11-17T01:19:52.525Z,94981.34
2022-11-17T01:24:55.126Z,94956.03
2022-11-17T01:29:57.751Z,94937.75
2022-11-17T01:35:01.715Z,94910.50
2022-11-17T01:40:04.945Z,94873.66
2022-11-17T01:45:18.691Z,94847.31
2022-11-17T01:50:27.462Z,94821.84
2022-11-17T01:55:33.060Z,94794.66
2022-11-17T02:00:35.707Z,94786.75
2022-11-17T02:05:46.493Z,94761.44
2022-11-17T02:10:51.812Z,94749.13
2022-11-17T02:15:54.604Z,94742.19
2022-11-17T02:21:12.178Z,94736.94
2022-11-17T02:26:22.368Z,94730.03
2022-11-17T02:31:30.920Z,94716.00
2022-11-17T02:36:36.345Z,94702.88
2022-11-17T02:41:45.813Z,94676.50
2022-11-17T02:46:52.384Z,94670.34
2022-11-17T02:51:56.223Z,94656.22
2022-11-17T02:56:59.182Z,94649.97
2022-11-17T03:02:19.050Z,94647.81
2022-11-17T03:07:32.577Z,94651.31
2022-11-17T03:12:40.113Z,94652.16
2022-11-17T03:17:48.959Z,94647.66
2022-11-17T03:22:55.336Z,94663.31
2022-11-17T03:28:00.950Z,94658.84
2022-11-17T03:33:09.484Z,94650.06
2022-11-17T03:38:14.175Z,94652.75
2022-11-17T03:43:18.008Z,94645.75
2022-11-17T03:48:25.562Z,94645.81
2022-11-17T03:53:28.384Z,94626.53
2022-11-17T03:58:34.133Z,94633.69
2022-11-17T04:03:38.464Z,94637.16
2022-11-17T04:08:41.378Z,94612.03
2022-11-17T04:14:01.379Z,94587.78
2022-11-17T04:19:05.464Z,94557.25
2022-11-17T04:24:09.074Z,94553.16
2022-11-17T04:29:11.799Z,94529.56
2022-11-17T04:34:15.842Z,94506.88
2022-11-17T04:39:18.613Z,94508.72
2022-11-17T04:44:22.405Z,94514.09
2022-11-17T04:49:27.225Z,94501.13
2022-11-17T04:54:29.888Z,94509.97
2022-11-17T04:59:32.491Z,94490.78
2022-11-17T05:04:53.962Z,94493.19
2022-11-17T05:09:56.645Z,94497.78
2022-11-17T05:14:59.418Z,94479.44
2022-11-17T05:20:03.537Z,94478.59
2022-11-17T05:25:06.743Z,94484.69
2022-11-17T05:30:10.868Z,94473.34
2022-11-17T05:35:15.215Z,94482.13
2022-11-17T05:40:18.069Z,94475.81
2022-11-17T05:45:20.859Z,94462.53
2022-11-17T05:50:24.890Z,94461.59
2022-11-17T05:55:27.856Z,94477.97
2022-11-17T06:00:31.018Z,94470.09
2022-11-17T06:05:35.471Z,94464.75
2022-11-17T06:10:38.141Z,94480.38
2022-11-17T06:15:40.899Z,94478.50
2022-11-17T06:20:46.443Z,94456.25
2022-11-17T06:25:49.505Z,94458.59
2022-11-17T06:30:52.222Z,94469.25
2022-11-17T06:35:56.407Z,94461.31
2022-11-17T06:40:59.084Z,94475.13
2022-11-17T06:46:04.079Z,94520.47
2022-11-17T06:51:08.323Z,94539.75
2022-11-17T06:56:11.602Z,94534.09
2022-11-17T07:01:15.724Z,94553.72
2022-11-17T07:06:19.970Z,94554.50
2022-11-17T07:11:22.691Z,94552.53
2022-11-17T07:16:25.363Z,94551.63
2022-11-17T07:21:29.470Z,94552.31
2022-11-17T07:26:32.361Z,94567.16
2022-11-17T07:31:35.908Z,94552.25
2022-11-17T07:36:39.972Z,94554.09
2022-11-17T07:41:42.767Z,94548.72
2022-11-17T07:46:45.599Z,94527.50
2022-11-17T07:51:49.699Z,94541.41
2022-11-17T07:56:52.465Z,94545.88
2022-11-17T08:01:55.202Z,94533.88
2022-11-17T08:06:59.235Z,94529.56
2022-11-17T08:12:02.058Z,94564.03
2022-11-17T08:17:04.744Z,94575.69
2022-11-17T08:22:09.824Z,94583.72
2022-11-17T08:27:12.477Z,94580.97
2022-11-17T08:32:15.077Z,94586.19
2022-11-17T08:37:19.080Z,94596.66
2022-11-17T08:42:21.873Z,94601.78
2022-11-17T08:47:25.621Z,94610.72
2022-11-17T08:52:29.961Z,94608.44
2022-11-17T08:57:32.697Z,94617.22
2022-11-17T09:02:35.452Z,94607.47
2022-11-17T09:07:39.465Z,94605.63
2022-11-17T09:12:42.209Z,94610.66
2022-11-17T09:17:47.685Z,94617.44
2022-11-17T09:22:51.892Z,94609.31
2022-11-17T09:27:54.622Z,94624.91
2022-11-17T09:32:57.291Z,94630.09
2022-11-17T09:38:01.751Z,94592.00
2022-11-17T09:43:07.472Z,94612.56
2022-11-17T09:48:39.569Z,94606.81
2022-11-17T09:53:43.482Z,94608.66
2022-11-17T09:58:47.470Z,94612.09
2022-11-17T10:03:51.379Z,94596.78
2022-11-17T10:09:00.277Z,94617.03
2022-11-17T10:14:04.908Z,94618.53
2022-11-17T10:19:13.023Z,94585.72
2022-11-17T10:24:34.971Z,94595.59
2022-11-17T10:29:37.506Z,94579.16
2022-11-17T10:34:41.619Z,94595.63
2022-11-17T10:39:45.749Z,94630.88
2022-11-17T10:44:52.194Z,94645.97
2022-11-17T10:50:08.489Z,94633.25
2022-11-17T10:55:25.381Z,94638.38
2022-11-17T11:00:32.820Z,94622.16
2022-11-17T11:05:35.461Z,94616.06
2022-11-17T11:10:39.421Z,94628.56
2022-11-17T11:15:42.012Z,94605.88
2022-11-17T11:20:48.487Z,94586.16
2022-11-17T11:25:56.946Z,94582.69
2022-11-17T11:31:02.737Z,94589.03
2022-11-17T11:36:16.432Z,94562.91
2022-11-17T11:41:32.504Z,94553.75
2022-11-17T11:46:40.940Z,94530.06
2022-11-17T11:51:44.317Z,94531.09
2022-11-17T11:56:49.102Z,94515.81
2022-11-17T12:01:56.132Z,94561.53
2022-11-17T12:07:02.811Z,94541.63
2022-11-17T12:12:10.074Z,94550.19
2022-11-17T12:17:23.175Z,94562.03
2022-11-17T12:22:46.911Z,94589.75
2022-11-17T12:27:52.537Z,94576.78
2022-11-17T12:32:55.731Z,94598.03
2022-11-17T12:38:35.876Z,94579.38
2022-11-17T12:43:41.078Z,94552.41
2022-11-17T12:48:48.353Z,94595.72
2022-11-17T12:54:01.376Z,94614.53
2022-11-17T12:59:39.141Z,94608.53
2022-11-17T13:04:49.347Z,94641.16
2022-11-17T13:09:54.288Z,94650.50
2022-11-17T13:14:59.334Z,94673.22
2022-11-17T13:20:03.813Z,94674.66
2022-11-17T13:25:18.499Z,94697.50
2022-11-17T13:30:25.106Z,94696.50
2022-11-17T13:35:30.341Z,94703.00
2022-11-17T13:40:34.732Z,94723.28
2022-11-17T13:45:38.786Z,94733.75
2022-11-17T13:50:41.766Z,94771.47
2022-11-17T13:55:45.090Z,94795.25
2022-11-17T14:00:53.771Z,94837.69
2022-11-17T14:05:57.423Z,94877.38
2022-11-17T14:11:16.365Z,94909.47
2022-11-17T14:16:28.769Z,94947.03
2022-11-17T14:21:32.080Z,94998.28
2022-11-17T14:26:34.635Z,95050.41
2022-11-17T14:31:38.718Z,95072.50
2022-11-17T14:36:41.537Z,95122.09
2022-11-17T14:41:44.320Z,95166.25
2022-11-17T14:46:48.209Z,95208.97
2022-11-17T14:51:51.108Z,95248.59
2022-11-17T14:56:53.675Z,95279.69
2022-11-17T15:01:57.690Z,95324.91
2022-11-17T15:07:00.325Z,95355.00
2022-11-17T15:12:03.004Z,95395.75
2022-11-17T15:17:11.213Z,95421.78
2022-11-17T15:22:16.658Z,95416.44
2022-11-17T15:27:19.207Z,95425.41
2022-11-17T15:32:23.099Z,95445.91
2022-11-17T15:37:25.847Z,95454.84
2022-11-17T15:42:28.401Z,95454.94
2022-11-17T15:47:33.036Z,95461.34
2022-11-17T15:53:02.007Z,95464.94
2022-11-17T15:57:58.260Z,95481.75
2022-11-17T16:03:02.116Z,95416.06
2022-11-17T16:08:04.858Z,95389.34
2022-11-17T16:13:07.408Z,95369.69
2022-11-17T16:18:11.257Z,95453.09
2022-11-17T16:23:14.174Z,95443.09
2022-11-17T16:28:17.673Z,95405.41
2022-11-17T16:33:21.569Z,95492.59
2022-11-17T16:38:24.088Z,95497.97
2022-11-17T16:43:26.633Z,95500.69
2022-11-17T16:48:34.138Z,95503.28
2022-11-17T16:53:36.698Z,95508.59
2022-11-17T16:58:39.667Z,95519.25
2022-11-17T17:03:43.901Z,95520.25
2022-11-17T17:08:46.511Z,95518.53
2022-11-17T17:13:49.078Z,95524.09
2022-11-17T17:18:56.774Z,95535.56
2022-11-17T17:23:59.717Z,95552.41
2022-11-17T17:29:03.468Z,95543.56
2022-11-17T17:34:08.183Z,95563.13
2022-11-17T17:39:13.910Z,95558.03
2022-11-17T17:44:18.113Z,95559.94
2022-11-17T17:49:21.996Z,95567.97
2022-11-17T17:54:25.179Z,95570.44
2022-11-17T17:59:27.701Z,95568.72
2022-11-17T18:04:31.597Z,95574.03
2022-11-17T18:09:34.122Z,95573.13
2022-11-17T18:14:36.660Z,95577.66
2022-11-17T18:19:40.589Z,95582.09
2022-11-17T18:24:43.125Z,95573.41
2022-11-17T18:29:45.661Z,95562.94
2022-11-17T18:34:49.581Z,95562.97
2022-11-17T18:39:52.190Z,95565.91
2022-11-17T18:44:54.737Z,95568.81
2022-11-17T18:49:58.611Z,95563.56
2022-11-17T18:55:01.171Z,95568.13
2022-11-17T19:00:03.815Z,95574.22
2022-11-17T19:05:08.439Z,95583.28
2022-11-17T19:10:11.340Z,95570.94
2022-11-17T19:15:13.890Z,95595.91
2022-11-17T19:20:19.075Z,95590.63
2022-11-17T19:25:21.614Z,95600.44
2022-11-17T19:30:24.146Z,95591.56
2022-11-17T19:35:28.034Z,95595.16
2022-11-17T19:40:30.567Z,95610.09
2022-11-17T19:45:33.122Z,95625.06
2022-11-17T19:50:37.009Z,95613.66
2022-11-17T19:55:39.562Z,95613.47
2022-11-17T20:00:42.122Z,95616.19
2022-11-17T20:05:45.982Z,95626.03
2022-11-17T20:10:48.532Z,95618.25
2022-11-17T20:15:56.828Z,95621.63
2022-11-17T20:21:00.822Z,95626.88
2022-11-17T20:26:05.116Z,95628.59
2022-11-17T20:31:09.689Z,95639.31
2022-11-17T20:36:15.361Z,95645.44
2022-11-17T20:41:18.040Z,95667.56
2022-11-17T20:46:21.314Z,95669.38
2022-11-17T20:51:26.294Z,95665.03
2022-11-17T20:56:28.849Z,95693.09
2022-11-17T21:01:31.491Z,95680.75
2022-11-17T21:06:35.484Z,95694.88
2022-11-17T21:11:55.429Z,95680.84
2022-11-17T21:17:00.200Z,95692.31
2022-11-17T21:22:04.150Z,95688.88
2022-11-17T21:27:06.789Z,95689.75
2022-11-17T21:32:09.384Z,95709.19
2022-11-17T21:37:13.283Z,95716.31
2022-11-17T21:42:15.838Z,95717.16
2022-11-17T21:47:19.942Z,95710.94
2022-11-17T21:52:25.157Z,95727.59
2022-11-17T21:57:27.704Z,95735.69
2022-11-17T22:02:30.344Z,95740.97
2022-11-17T22:07:34.309Z,95747.25
2022-11-17T22:12:36.924Z,95752.47
2022-11-17T22:17:39.520Z,95744.66
2022-11-17T22:22:43.799Z,95756.94
2022-11-17T22:27:46.332Z,95748.16
2022-11-17T22:32:48.874Z,95766.59
2022-11-17T22:37:52.744Z,95770.16
2022-11-17T22:42:55.303Z,95773.59
2022-11-17T22:47:57.879Z,95776.25
2022-11-17T22:53:01.840Z,95779.84
2022-11-17T22:58:04.392Z,95785.16
2022-11-17T23:03:07.195Z,95791.31
2022-11-17T23:08:11.162Z,95798.41
2022-11-17T23:13:13.739Z,95796.66
2022-11-17T23:18:16.319Z,95814.25
2022-11-17T23:23:20.192Z,95831.00
2022-11-17T23:28:22.736Z,95831.94
2022-11-17T23:33:25.290Z,95829.34
2022-11-17T23:38:30.503Z,95830.25
2022-11-17T23:43:33.308Z,95835.47
2022-11-17T23:48:35.857Z,95837.31
2022-11-17T23:53:40.397Z,95837.31
2022-11-17T23:58:43.432Z,95832.97
